Time;durP1;ratioP1;P1;durP2;ratioP2;P2;SDS_P1;SDS_P2;PMS_P1;PMS_P2;Temp;Humidity;BMP_temperature;BMP_pressure;BME280_temperature;BME280_humidity;BME280_pressure;Samples;Min_cycle;Max_cycle;Signal;HPM_P1;HPM_P2
2023/05/21 00:02:17;;;;;;;14.63;10.68;;;12.70;91.90;;;;;;5085340;28;20072;-73
2023/05/21 00:04:45;;;;;;;16.92;11.63;;;12.70;91.90;;;;;;5091282;28;20209;-72
2023/05/21 00:07:11;;;;;;;16.80;11.90;;;12.70;91.30;;;;;;5085128;28;20088;-72
2023/05/21 00:09:37;;;;;;;20.48;12.65;;;12.70;91.50;;;;;;5076666;28;20020;-72
2023/05/21 00:12:09;;;;;;;16.52;12.68;;;12.70;91.90;;;;;;5061475;28;20051;-71
2023/05/21 00:14:34;;;;;;;19.23;12.77;;;12.70;91.40;;;;;;5097197;28;20325;-72
2023/05/21 00:17:00;;;;;;;15.57;12.07;;;12.70;91.80;;;;;;5086867;28;20020;-72
2023/05/21 00:19:26;;;;;;;15.38;11.80;;;12.70;92.00;;;;;;5081088;28;20072;-71
2023/05/21 00:21:51;;;;;;;18.73;13.43;;;12.80;92.10;;;;;;5068983;28;20043;-71
2023/05/21 00:24:17;;;;;;;17.23;12.40;;;12.80;92.20;;;;;;5092470;28;20032;-71
2023/05/21 00:26:43;;;;;;;18.33;13.00;;;12.70;91.90;;;;;;5080055;28;20035;-71
2023/05/21 00:29:08;;;;;;;17.55;13.43;;;12.80;92.40;;;;;;5096122;28;20364;-71
2023/05/21 00:31:34;;;;;;;15.30;12.48;;;12.80;92.70;;;;;;5093774;28;20058;-72
2023/05/21 00:33:59;;;;;;;15.02;12.43;;;12.80;92.70;;;;;;5092921;28;20127;-71
2023/05/21 00:36:25;;;;;;;15.95;11.90;;;12.70;92.50;;;;;;5082209;28;20033;-71
2023/05/21 00:38:51;;;;;;;15.73;12.30;;;12.70;92.20;;;;;;5087846;28;20071;-72
2023/05/21 00:41:17;;;;;;;16.38;13.00;;;12.60;91.50;;;;;;5091184;28;20024;-72
2023/05/21 00:43:45;;;;;;;16.80;12.32;;;12.50;90.70;;;;;;5094989;28;20035;-72
2023/05/21 00:46:15;;;;;;;17.35;13.40;;;12.40;90.50;;;;;;5085470;28;20418;-70
2023/05/21 00:48:42;;;;;;;18.95;14.80;;;12.40;90.00;;;;;;5076821;28;20351;-71
2023/05/21 00:51:08;;;;;;;16.05;13.15;;;12.40;90.20;;;;;;5086818;28;20425;-71
2023/05/21 00:53:34;;;;;;;21.55;13.98;;;12.40;89.70;;;;;;5084790;28;20454;-71
2023/05/21 00:56:00;;;;;;;17.88;14.35;;;12.40;89.70;;;;;;5093819;28;20392;-71
2023/05/21 00:58:27;;;;;;;18.98;13.57;;;12.30;89.70;;;;;;5076831;28;20028;-71
2023/05/21 01:00:55;;;;;;;17.55;13.20;;;12.30;89.00;;;;;;5084099;28;20409;-72
2023/05/21 01:03:22;;;;;;;16.02;13.07;;;12.20;88.20;;;;;;5082448;28;20360;-71
2023/05/21 01:05:52;;;;;;;17.58;14.38;;;12.20;87.60;;;;;;5082676;28;20465;-71
2023/05/21 01:08:23;;;;;;;24.70;15.48;;;12.20;86.80;;;;;;5095497;28;20144;-71
2023/05/21 01:10:49;;;;;;;17.65;14.20;;;12.20;86.70;;;;;;5081971;28;20035;-72
2023/05/21 01:13:15;;;;;;;16.20;13.20;;;12.20;86.50;;;;;;5065368;28;20035;-72
2023/05/21 01:15:43;;;;;;;16.65;13.98;;;12.10;86.30;;;;;;5081164;28;20314;-72
2023/05/21 01:18:09;;;;;;;21.75;14.75;;;12.10;86.60;;;;;;5093708;28;20024;-71
2023/05/21 01:20:36;;;;;;;16.38;13.52;;;12.10;86.50;;;;;;5089224;28;20107;-71
2023/05/21 01:23:02;;;;;;;16.48;14.00;;;12.10;86.10;;;;;;5087544;28;20035;-71
2023/05/21 01:25:27;;;;;;;16.67;13.25;;;12.10;86.00;;;;;;5080780;28;20021;-72
2023/05/21 01:27:53;;;;;;;18.63;14.20;;;12.10;86.20;;;;;;5067831;28;20327;-72
2023/05/21 01:30:20;;;;;;;21.27;15.55;;;12.10;86.20;;;;;;5091821;28;20037;-72
2023/05/21 01:33:06;;;;;;;21.90;14.40;;;12.10;85.90;;;;;;5088941;28;20096;-72
2023/05/21 01:35:54;;;;;;;21.80;15.00;;;12.10;86.00;;;;;;5079751;28;20075;-71
2023/05/21 01:38:36;;;;;;;18.30;13.55;;;12.10;86.70;;;;;;5072766;28;20032;-71
2023/05/21 01:41:06;;;;;;;18.48;13.55;;;12.10;87.00;;;;;;5062307;28;20436;-71
2023/05/21 01:43:35;;;;;;;17.35;13.13;;;12.10;87.40;;;;;;5092719;28;20036;-72
2023/05/21 01:46:01;;;;;;;19.67;14.90;;;12.00;87.30;;;;;;5092258;28;20024;-71
2023/05/21 01:48:28;;;;;;;18.90;14.77;;;12.00;86.40;;;;;;5079213;28;20044;-71
2023/05/21 01:50:56;;;;;;;18.83;14.57;;;11.90;85.20;;;;;;5092216;28;20063;-71
2023/05/21 01:53:22;;;;;;;22.00;16.30;;;11.90;85.00;;;;;;5085817;28;20036;-72
2023/05/21 01:55:48;;;;;;;17.67;14.25;;;11.90;84.50;;;;;;5086367;28;20081;-71
2023/05/21 01:58:17;;;;;;;18.95;15.68;;;11.80;84.10;;;;;;5086174;28;20326;-71
2023/05/21 02:00:46;;;;;;;22.55;16.38;;;11.80;84.10;;;;;;5088005;28;20024;-71
2023/05/21 02:03:15;;;;;;;19.55;15.15;;;11.80;84.00;;;;;;5091923;28;20480;-72
2023/05/21 02:05:40;;;;;;;18.52;15.18;;;11.80;83.60;;;;;;5081511;28;20452;-71
2023/05/21 02:08:07;;;;;;;21.20;15.68;;;11.70;83.20;;;;;;5080466;28;20052;-72
2023/05/21 02:10:33;;;;;;;19.02;14.50;;;11.70;82.90;;;;;;5084506;28;20024;-72
2023/05/21 02:12:58;;;;;;;20.05;15.48;;;11.70;82.80;;;;;;5094525;28;20081;-71
2023/05/21 02:15:24;;;;;;;21.30;15.30;;;11.70;83.00;;;;;;5088791;28;20029;-71
2023/05/21 02:17:50;;;;;;;23.33;17.20;;;11.70;82.20;;;;;;5090142;28;20024;-71
2023/05/21 02:20:16;;;;;;;20.60;16.30;;;11.60;81.90;;;;;;5088551;28;20417;-73
2023/05/21 02:22:46;;;;;;;21.95;17.15;;;11.60;81.70;;;;;;5087109;28;20016;-72
2023/05/21 02:25:14;;;;;;;19.58;15.70;;;11.50;81.20;;;;;;5085651;28;20028;-72
2023/05/21 02:27:41;;;;;;;19.63;16.02;;;11.50;80.80;;;;;;5092242;28;20099;-72
2023/05/21 02:30:08;;;;;;;20.50;15.55;;;11.50;80.30;;;;;;5085734;28;20024;-71
2023/05/21 02:32:34;;;;;;;24.55;17.67;;;11.50;80.00;;;;;;5086305;28;20320;-72
2023/05/21 02:35:02;;;;;;;27.77;18.80;;;11.50;80.10;;;;;;5086875;28;20028;-72
2023/05/21 02:37:28;;;;;;;22.20;17.48;;;11.50;80.00;;;;;;5084105;28;20036;-72
2023/05/21 02:39:55;;;;;;;21.27;17.05;;;11.50;79.60;;;;;;5086421;28;20413;-72
2023/05/21 02:42:23;;;;;;;24.10;18.48;;;11.50;79.40;;;;;;5088810;28;20036;-72
2023/05/21 02:44:50;;;;;;;24.27;16.70;;;11.40;79.20;;;;;;5074860;28;20345;-72
2023/05/21 02:47:16;;;;;;;23.25;17.45;;;11.40;78.80;;;;;;5084679;28;20096;-71
2023/05/21 02:49:41;;;;;;;23.10;18.85;;;11.40;78.80;;;;;;5080982;28;20451;-72
2023/05/21 02:52:07;;;;;;;24.08;18.50;;;11.30;77.80;;;;;;5086352;28;20036;-72
2023/05/21 02:54:32;;;;;;;25.45;18.80;;;11.40;76.70;;;;;;5080293;28;20032;-72
2023/05/21 02:56:58;;;;;;;23.20;18.15;;;11.40;77.00;;;;;;5082516;28;20425;-72
2023/05/21 02:59:23;;;;;;;23.65;17.42;;;11.40;76.40;;;;;;5069357;28;20320;-72
2023/05/21 03:01:49;;;;;;;23.27;18.75;;;11.40;76.70;;;;;;5090199;28;20020;-71
2023/05/21 03:04:20;;;;;;;23.75;18.52;;;11.40;76.60;;;;;;5071504;28;20332;-72
2023/05/21 03:06:46;;;;;;;24.23;18.70;;;11.30;76.80;;;;;;5091653;28;20413;-71
2023/05/21 03:09:12;;;;;;;26.52;20.13;;;11.30;76.70;;;;;;5083006;28;20036;-72
2023/05/21 03:11:38;;;;;;;24.70;19.42;;;11.30;75.70;;;;;;5080335;28;20021;-72
2023/05/21 03:14:03;;;;;;;24.15;18.50;;;11.30;76.10;;;;;;5089997;28;20337;-72
2023/05/21 03:16:33;;;;;;;23.42;18.80;;;11.20;75.70;;;;;;5079079;28;20103;-72
2023/05/21 03:18:59;;;;;;;25.63;19.30;;;11.20;75.40;;;;;;5085867;28;20040;-71
2023/05/21 03:21:24;;;;;;;25.90;19.75;;;11.10;74.20;;;;;;5090238;28;20025;-72
2023/05/21 03:23:51;;;;;;;24.23;19.45;;;11.20;73.30;;;;;;5083524;28;20035;-72
2023/05/21 03:26:17;;;;;;;24.13;19.70;;;11.30;73.40;;;;;;5095104;28;20413;-72
2023/05/21 03:28:42;;;;;;;23.75;18.80;;;11.30;73.40;;;;;;5082444;28;20036;-72
2023/05/21 03:31:08;;;;;;;29.63;20.02;;;11.20;73.80;;;;;;5083454;28;20317;-72
2023/05/21 03:33:34;;;;;;;27.85;21.33;;;11.20;74.00;;;;;;5074066;28;20029;-72
2023/05/21 03:35:59;;;;;;;24.55;19.00;;;11.20;74.00;;;;;;5079240;28;20048;-72
2023/05/21 03:38:25;;;;;;;21.80;17.60;;;11.20;73.40;;;;;;5083016;28;20028;-72
2023/05/21 03:40:50;;;;;;;26.25;19.45;;;11.20;73.40;;;;;;5095215;28;20107;-72
2023/05/21 03:43:16;;;;;;;25.70;20.60;;;11.30;73.60;;;;;;5093486;28;20029;-72
2023/05/21 03:45:41;;;;;;;26.75;20.55;;;11.30;73.80;;;;;;5093844;28;20023;-72
2023/05/21 03:48:07;;;;;;;28.65;20.88;;;11.20;73.90;;;;;;5092919;28;20059;-72
2023/05/21 03:50:32;;;;;;;23.73;18.58;;;11.20;73.60;;;;;;5093101;28;20038;-72
2023/05/21 03:53:01;;;;;;;20.20;17.17;;;11.20;73.00;;;;;;5092978;28;20024;-72
2023/05/21 03:55:26;;;;;;;21.42;17.95;;;11.20;73.10;;;;;;5092333;28;20404;-72
2023/05/21 03:57:52;;;;;;;22.85;17.73;;;11.20;73.80;;;;;;5094012;28;20060;-72
2023/05/21 04:00:17;;;;;;;22.02;17.95;;;11.20;73.90;;;;;;5093124;28;20371;-71
2023/05/21 04:02:43;;;;;;;21.75;17.83;;;11.20;74.40;;;;;;5078598;28;20337;-72
2023/05/21 04:05:09;;;;;;;23.42;18.35;;;11.20;75.00;;;;;;5091027;28;20089;-72
2023/05/21 04:07:37;;;;;;;22.10;17.33;;;11.20;74.80;;;;;;5097970;28;20043;-72
2023/05/21 04:10:03;;;;;;;26.40;19.50;;;11.20;74.60;;;;;;5083624;28;20016;-72
2023/05/21 04:12:28;;;;;;;23.90;18.27;;;11.30;75.50;;;;;;5067165;28;20107;-72
2023/05/21 04:14:54;;;;;;;26.80;19.08;;;11.20;75.00;;;;;;5089586;28;20182;-72
2023/05/21 04:17:20;;;;;;;25.95;19.67;;;11.30;73.80;;;;;;5069989;28;20025;-72
2023/05/21 04:19:46;;;;;;;26.45;19.02;;;11.40;74.00;;;;;;5084550;28;20043;-71
2023/05/21 04:22:11;;;;;;;25.65;20.00;;;11.40;74.50;;;;;;5095707;28;20317;-72
2023/05/21 04:24:37;;;;;;;28.65;20.00;;;11.50;74.80;;;;;;5088806;28;20115;-72
2023/05/21 04:27:03;;;;;;;26.35;19.15;;;11.60;74.50;;;;;;5095889;28;20424;-72
2023/05/21 04:29:29;;;;;;;22.27;17.77;;;11.70;74.40;;;;;;5094969;28;20028;-72
2023/05/21 04:31:55;;;;;;;24.33;18.10;;;11.80;75.00;;;;;;5095221;28;20028;-72
2023/05/21 04:34:20;;;;;;;28.60;20.42;;;11.80;76.90;;;;;;5096059;28;20028;-72
2023/05/21 04:36:47;;;;;;;23.35;17.73;;;11.80;77.70;;;;;;5079488;28;20440;-72
2023/05/21 04:39:13;;;;;;;21.95;17.38;;;11.90;77.00;;;;;;5087903;28;20072;-72
2023/05/21 04:41:42;;;;;;;20.45;16.05;;;11.90;77.40;;;;;;5090840;28;20023;-72
2023/05/21 04:44:08;;;;;;;22.02;16.92;;;12.10;78.60;;;;;;5086310;28;20021;-72
2023/05/21 04:46:34;;;;;;;21.45;16.95;;;12.20;80.10;;;;;;5087558;28;20417;-72
2023/05/21 04:49:02;;;;;;;22.33;16.85;;;12.30;81.30;;;;;;5084142;28;20035;-72
2023/05/21 04:51:29;;;;;;;20.20;15.32;;;12.30;82.20;;;;;;5098482;28;20028;-72
2023/05/21 04:53:54;;;;;;;21.25;15.40;;;12.50;83.10;;;;;;5083711;28;20073;-72
2023/05/21 04:56:30;;;;;;;18.45;15.63;;;12.60;84.10;;;;;;5097127;28;20024;-71
2023/05/21 04:58:57;;;;;;;20.45;15.82;;;12.80;85.50;;;;;;5097210;28;20031;-72
2023/05/21 05:01:24;;;;;;;20.15;15.65;;;12.90;87.00;;;;;;5079074;28;20027;-72
2023/05/21 05:03:50;;;;;;;19.13;15.27;;;13.00;87.80;;;;;;5096770;28;20048;-72
2023/05/21 05:06:15;;;;;;;21.75;15.98;;;13.10;88.50;;;;;;5076026;28;20047;-71
2023/05/21 05:08:41;;;;;;;21.10;14.13;;;13.30;89.10;;;;;;5081956;28;20039;-72
2023/05/21 05:11:10;;;;;;;19.27;15.43;;;13.50;90.60;;;;;;5069040;28;20114;-72
2023/05/21 05:13:35;;;;;;;19.48;16.00;;;13.60;92.40;;;;;;5096636;28;20016;-73
2023/05/21 05:16:01;;;;;;;17.50;14.55;;;13.60;92.60;;;;;;5096622;28;20452;-71
2023/05/21 05:18:26;;;;;;;17.23;14.25;;;13.70;92.40;;;;;;5096342;28;20406;-73
2023/05/21 05:20:52;;;;;;;18.83;13.52;;;13.80;93.80;;;;;;5095593;28;20274;-72
2023/05/21 05:23:17;;;;;;;18.23;14.32;;;13.80;94.70;;;;;;5095552;28;20049;-72
2023/05/21 05:25:43;;;;;;;18.00;14.65;;;13.90;94.50;;;;;;5082269;28;20050;-73
2023/05/21 05:28:09;;;;;;;16.90;14.20;;;13.90;95.30;;;;;;5093296;28;20039;-73
2023/05/21 05:30:35;;;;;;;16.10;13.05;;;13.90;94.50;;;;;;5093059;28;20436;-72
2023/05/21 05:33:00;;;;;;;16.42;13.73;;;14.10;94.30;;;;;;5060152;28;20025;-72
2023/05/21 05:35:26;;;;;;;20.08;15.27;;;14.30;95.20;;;;;;5086240;28;20038;-72
2023/05/21 05:37:51;;;;;;;18.20;14.35;;;14.40;96.70;;;;;;5095243;28;20024;-71
2023/05/21 05:40:17;;;;;;;18.00;14.65;;;14.50;96.80;;;;;;5088558;28;20274;-71
2023/05/21 05:42:42;;;;;;;18.23;14.25;;;14.50;96.80;;;;;;5084678;28;20036;-72
2023/05/21 05:45:10;;;;;;;18.67;14.10;;;14.60;97.10;;;;;;5082653;28;20024;-72
2023/05/21 05:47:36;;;;;;;16.92;13.98;;;14.80;97.50;;;;;;5086092;28;20355;-72
2023/05/21 05:50:05;;;;;;;18.27;14.55;;;15.00;97.80;;;;;;5084634;28;20025;-72
2023/05/21 05:52:30;;;;;;;19.27;15.48;;;15.20;98.00;;;;;;5061595;28;20106;-72
2023/05/21 05:54:56;;;;;;;20.35;15.27;;;15.30;98.00;;;;;;5092219;28;20056;-72
2023/05/21 05:57:22;;;;;;;17.25;14.40;;;15.20;98.00;;;;;;5084973;28;20028;-72
2023/05/21 05:59:47;;;;;;;19.67;14.80;;;15.20;98.00;;;;;;5066581;28;20097;-72
2023/05/21 06:02:13;;;;;;;17.55;13.38;;;15.00;98.00;;;;;;5085065;28;20322;-72
2023/05/21 06:04:38;;;;;;;20.33;15.88;;;15.10;98.00;;;;;;5071352;28;20039;-72
2023/05/21 06:07:04;;;;;;;21.10;16.38;;;15.30;98.00;;;;;;5067328;28;20024;-72
2023/05/21 06:09:30;;;;;;;19.60;14.88;;;15.40;98.00;;;;;;5076071;28;20052;-72
2023/05/21 06:11:55;;;;;;;19.17;15.73;;;15.30;98.00;;;;;;5083718;28;20023;-72
2023/05/21 06:14:21;;;;;;;19.65;16.08;;;15.50;98.00;;;;;;5076543;28;20024;-72
2023/05/21 06:16:46;;;;;;;16.15;13.00;;;15.40;98.00;;;;;;5093499;28;20073;-72
2023/05/21 06:19:12;;;;;;;16.23;13.35;;;15.30;98.00;;;;;;5092881;28;20036;-72
2023/05/21 06:21:37;;;;;;;18.85;13.90;;;15.50;98.00;;;;;;5076592;28;20035;-72
2023/05/21 06:24:03;;;;;;;18.02;14.95;;;15.90;98.00;;;;;;5098999;28;20030;-72
2023/05/21 06:26:29;;;;;;;16.70;13.75;;;16.10;97.90;;;;;;5086757;28;20025;-72
2023/05/21 06:28:55;;;;;;;17.73;13.80;;;16.30;97.80;;;;;;5086271;28;20503;-72
2023/05/21 06:31:21;;;;;;;16.58;13.45;;;16.50;97.40;;;;;;5059995;28;20056;-72
2023/05/21 06:33:50;;;;;;;16.85;14.15;;;16.40;97.10;;;;;;5089990;28;20028;-72
2023/05/21 06:36:16;;;;;;;18.83;13.82;;;16.70;97.00;;;;;;5082537;28;20048;-72
2023/05/21 06:38:41;;;;;;;16.45;13.93;;;16.70;97.10;;;;;;5092260;28;20370;-72
2023/05/21 06:41:07;;;;;;;21.70;14.75;;;17.00;96.60;;;;;;5090323;28;20016;-72
2023/05/21 06:43:33;;;;;;;20.15;14.88;;;17.30;96.10;;;;;;5088342;28;20107;-72
2023/05/21 06:45:58;;;;;;;22.10;15.63;;;17.60;95.40;;;;;;5076203;28;20029;-72
2023/05/21 06:48:24;;;;;;;19.48;14.90;;;17.60;94.50;;;;;;5071784;28;20111;-72
2023/05/21 06:50:52;;;;;;;18.25;14.95;;;17.20;95.30;;;;;;5085444;28;20032;-72
2023/05/21 06:53:18;;;;;;;18.17;15.93;;;17.20;96.00;;;;;;5087128;28;20036;-72
2023/05/21 06:55:44;;;;;;;19.90;16.20;;;17.50;95.50;;;;;;5087064;28;20035;-72
2023/05/21 06:58:10;;;;;;;23.30;15.15;;;17.50;94.50;;;;;;5095076;28;20066;-72
2023/05/21 07:00:36;;;;;;;20.25;16.00;;;17.40;95.10;;;;;;5095417;28;20409;-72
2023/05/21 07:03:01;;;;;;;19.08;16.55;;;17.50;95.50;;;;;;5096728;28;20100;-72
2023/05/21 07:05:28;;;;;;;20.73;16.42;;;17.70;95.40;;;;;;5098273;28;20421;-72
2023/05/21 07:07:54;;;;;;;17.25;14.55;;;17.50;95.80;;;;;;5084397;28;20029;-72
2023/05/21 07:10:20;;;;;;;18.83;16.13;;;17.50;96.10;;;;;;5078140;28;20121;-72
2023/05/21 07:12:45;;;;;;;17.48;14.57;;;17.90;95.60;;;;;;5092643;28;20494;-72
2023/05/21 07:15:11;;;;;;;18.15;14.82;;;18.10;95.40;;;;;;5096247;28;20706;-72
2023/05/21 07:17:37;;;;;;;18.75;14.30;;;18.30;94.90;;;;;;5091247;28;20462;-72
2023/05/21 07:20:10;;;;;;;18.38;15.82;;;18.50;94.70;;;;;;5066873;28;20029;-72
2023/05/21 07:22:37;;;;;;;19.63;15.27;;;18.60;93.90;;;;;;5069440;28;20024;-73
2023/05/21 07:25:04;;;;;;;20.95;14.43;;;18.60;94.40;;;;;;5095677;28;20035;-72
2023/05/21 07:27:29;;;;;;;17.65;14.00;;;18.60;94.20;;;;;;5084138;28;20017;-72
2023/05/21 07:29:55;;;;;;;18.15;13.80;;;18.90;93.10;;;;;;5078333;28;20025;-72
2023/05/21 07:32:20;;;;;;;17.10;13.82;;;19.60;92.60;;;;;;5078444;28;20028;-72
2023/05/21 07:34:46;;;;;;;18.70;14.85;;;20.10;90.00;;;;;;5081434;28;20032;-72
2023/05/21 07:37:12;;;;;;;17.45;12.70;;;20.10;90.20;;;;;;5095883;28;20077;-72
2023/05/21 07:39:38;;;;;;;19.60;14.65;;;20.40;90.40;;;;;;5097284;28;20020;-72
2023/05/21 07:42:04;;;;;;;17.15;12.93;;;20.50;88.80;;;;;;5085547;28;20021;-72
2023/05/21 07:44:32;;;;;;;17.02;13.38;;;20.60;88.90;;;;;;5083997;28;20375;-72
2023/05/21 07:46:58;;;;;;;19.83;14.23;;;20.90;88.00;;;;;;5094123;28;20290;-72
2023/05/21 07:49:24;;;;;;;17.23;13.43;;;20.60;88.20;;;;;;5085321;28;20035;-72
2023/05/21 07:51:49;;;;;;;16.83;13.43;;;20.60;88.90;;;;;;5089054;28;20043;-72
2023/05/21 07:54:15;;;;;;;17.58;13.07;;;20.90;87.80;;;;;;5084206;28;20043;-72
2023/05/21 07:56:40;;;;;;;15.68;13.10;;;21.10;87.30;;;;;;5087072;28;20082;-72
2023/05/21 07:59:09;;;;;;;18.42;14.55;;;21.70;86.10;;;;;;5089901;28;20448;-72
2023/05/21 08:01:36;;;;;;;20.17;14.57;;;21.80;86.00;;;;;;5068194;28;20020;-72
2023/05/21 08:04:05;;;;;;;15.95;13.05;;;21.70;85.00;;;;;;5088990;28;20352;-71
2023/05/21 08:06:32;;;;;;;17.58;13.98;;;21.60;85.90;;;;;;5081820;28;20025;-72
2023/05/21 08:09:00;;;;;;;16.45;14.07;;;22.10;85.00;;;;;;5086861;28;20051;-72
2023/05/21 08:11:28;;;;;;;15.07;12.45;;;22.30;84.50;;;;;;5078853;28;20069;-72
2023/05/21 08:13:55;;;;;;;18.10;13.75;;;22.70;83.40;;;;;;5083591;28;20044;-72
2023/05/21 08:16:23;;;;;;;15.13;12.43;;;23.10;82.40;;;;;;5085308;28;20016;-72
2023/05/21 08:18:50;;;;;;;15.45;12.55;;;23.20;82.10;;;;;;5092932;28;20032;-71
2023/05/21 08:21:16;;;;;;;17.17;13.15;;;23.60;81.50;;;;;;5090792;28;20048;-72
2023/05/21 08:23:42;;;;;;;16.13;14.23;;;23.80;80.20;;;;;;5089582;28;20413;-73
2023/05/21 08:26:08;;;;;;;20.30;13.80;;;23.60;80.40;;;;;;5087005;28;20081;-72
2023/05/21 08:28:37;;;;;;;17.48;14.35;;;23.00;81.60;;;;;;5095484;28;20028;-72
2023/05/21 08:31:02;;;;;;;17.40;14.98;;;22.80;83.30;;;;;;5091242;28;20076;-71
2023/05/21 08:33:28;;;;;;;21.33;16.02;;;22.00;84.30;;;;;;5091095;28;20040;-71
2023/05/21 08:35:53;;;;;;;19.10;15.25;;;21.40;86.20;;;;;;5086422;28;20223;-72
2023/05/21 08:38:22;;;;;;;20.25;15.88;;;21.50;86.50;;;;;;5087941;28;20538;-71
2023/05/21 08:40:50;;;;;;;18.98;15.60;;;21.60;86.40;;;;;;5093627;28;20036;-71
2023/05/21 08:43:16;;;;;;;20.42;16.48;;;21.40;87.10;;;;;;5089519;28;20050;-72
2023/05/21 08:45:46;;;;;;;18.60;16.10;;;21.60;86.40;;;;;;5095261;28;20099;-72
2023/05/21 08:48:15;;;;;;;21.27;17.08;;;22.00;86.40;;;;;;5083492;28;20029;-71
2023/05/21 08:50:42;;;;;;;19.15;15.82;;;21.90;85.70;;;;;;5086767;28;20328;-72
2023/05/21 08:53:11;;;;;;;19.63;15.85;;;22.20;86.00;;;;;;5091699;28;20024;-71
2023/05/21 08:55:37;;;;;;;16.13;13.57;;;22.40;85.00;;;;;;5091480;28;20112;-71
2023/05/21 08:58:03;;;;;;;20.95;17.38;;;22.90;84.30;;;;;;5092146;28;20027;-72
2023/05/21 09:00:29;;;;;;;16.95;14.90;;;22.90;82.80;;;;;;5091168;28;20047;-72
2023/05/21 09:02:55;;;;;;;19.80;15.18;;;22.80;84.60;;;;;;5096917;28;20048;-71
2023/05/21 09:05:21;;;;;;;16.58;14.38;;;23.10;84.40;;;;;;5093537;28;20428;-72
2023/05/21 09:07:59;;;;;;;17.38;14.77;;;22.80;84.20;;;;;;5090349;28;20032;-72
2023/05/21 09:10:33;;;;;;;18.60;16.33;;;22.90;84.50;;;;;;5080181;28;20325;-71
2023/05/21 09:12:59;;;;;;;17.60;15.55;;;22.60;84.20;;;;;;5084566;28;20126;-71
2023/05/21 09:15:25;;;;;;;17.90;14.88;;;22.40;85.70;;;;;;5082416;28;20032;-72
2023/05/21 09:17:51;;;;;;;16.75;13.82;;;22.50;85.60;;;;;;5087960;28;20024;-71
2023/05/21 09:20:17;;;;;;;15.88;14.18;;;22.70;85.40;;;;;;5083490;28;20047;-72
2023/05/21 09:22:50;;;;;;;17.90;14.52;;;23.50;83.70;;;;;;5089764;28;20623;-71
2023/05/21 09:25:28;;;;;;;17.60;15.30;;;23.70;83.10;;;;;;5081586;28;20358;-72
2023/05/21 09:27:55;;;;;;;19.67;14.73;;;23.50;83.40;;;;;;5088936;28;20028;-73
2023/05/21 09:30:22;;;;;;;16.98;15.18;;;23.50;83.40;;;;;;5088818;28;20031;-72
2023/05/21 09:32:58;;;;;;;18.27;15.20;;;23.40;83.50;;;;;;5087896;28;20114;-72
2023/05/21 09:35:24;;;;;;;18.67;15.73;;;23.50;83.80;;;;;;5080443;28;20332;-72
2023/05/21 09:37:51;;;;;;;17.95;15.35;;;23.70;82.90;;;;;;5090528;28;20032;-71
2023/05/21 09:40:18;;;;;;;17.38;14.20;;;23.60;83.60;;;;;;5083228;28;20432;-72
2023/05/21 09:42:52;;;;;;;20.42;14.60;;;24.10;83.00;;;;;;5080621;28;20050;-72
2023/05/21 09:45:18;;;;;;;;;;;24.10;82.40;;;;;;5082355;28;20074;-72
2023/05/21 09:47:45;;;;;;;18.60;15.35;;;24.00;82.70;;;;;;5086662;28;19915;-71
2023/05/21 09:50:12;;;;;;;19.52;14.02;;;23.70;83.10;;;;;;5079106;28;20025;-71
2023/05/21 09:52:38;;;;;;;20.60;14.82;;;23.90;82.80;;;;;;5082335;28;20032;-71
2023/05/21 09:55:05;;;;;;;17.02;14.27;;;23.80;82.90;;;;;;5055337;28;20027;-72
2023/05/21 09:57:31;;;;;;;16.02;14.27;;;24.30;82.90;;;;;;5057075;28;20070;-72
2023/05/21 09:59:57;;;;;;;17.98;14.30;;;24.80;81.30;;;;;;5093262;28;20028;-71
2023/05/21 10:02:25;;;;;;;18.20;14.57;;;25.30;79.70;;;;;;5083715;28;20040;-71
2023/05/21 10:04:51;;;;;;;14.05;12.40;;;25.60;78.30;;;;;;5089934;28;20032;-79
2023/05/21 10:07:20;;;;;;;20.05;13.73;;;25.60;78.10;;;;;;5072478;28;20420;-79
2023/05/21 10:09:49;;;;;;;16.30;13.13;;;25.70;78.00;;;;;;5086440;28;20107;-74
2023/05/21 10:12:18;;;;;;;13.55;12.07;;;25.60;79.30;;;;;;5069121;28;20032;-78
2023/05/21 10:14:50;;;;;;;17.15;11.77;;;25.80;78.00;;;;;;5076443;28;20392;-87
2023/05/21 10:17:15;;;;;;;12.98;10.98;;;26.00;76.10;;;;;;5056689;28;20028;-73
2023/05/21 10:19:43;;;;;;;20.38;13.05;;;26.40;77.50;;;;;;5089175;28;20309;-90
2023/05/21 10:22:09;;;;;;;13.40;12.00;;;26.10;75.30;;;;;;5065764;28;20048;-72
2023/05/21 10:24:35;;;;;;;13.07;11.30;;;25.50;77.10;;;;;;5081267;28;20048;-71
2023/05/21 10:27:02;;;;;;;15.40;11.10;;;25.90;78.80;;;;;;5088038;28;20131;-72
2023/05/21 10:29:29;;;;;;;19.30;12.10;;;27.10;75.60;;;;;;5091011;28;20378;-72
2023/05/21 10:31:56;;;;;;;14.98;11.73;;;27.70;72.80;;;;;;5085164;28;20021;-71
2023/05/21 10:34:23;;;;;;;14.68;11.15;;;28.20;71.60;;;;;;5099639;28;20020;-72
2023/05/21 10:36:51;;;;;;;14.35;11.90;;;28.20;71.00;;;;;;5099774;28;20052;-72
2023/05/21 10:39:20;;;;;;;14.23;12.38;;;27.50;71.60;;;;;;5079793;28;20083;-72
2023/05/21 10:41:57;;;;;;;15.88;12.55;;;27.30;72.50;;;;;;5086639;28;20040;-72
2023/05/21 10:45:07;;;;;;;13.65;11.55;;;26.40;74.90;;;;;;5093972;28;20042;-72
2023/05/21 10:47:50;;;;;;;14.85;13.25;;;27.00;73.90;;;;;;5038339;28;20381;-72
2023/05/21 10:50:40;;;;;;;14.10;11.43;;;26.20;76.80;;;;;;5092465;28;20059;-72
2023/05/21 10:53:15;;;;;;;12.52;10.27;;;26.30;76.20;;;;;;5092042;28;20017;-72
2023/05/21 10:55:48;;;;;;;11.13;8.18;;;26.90;75.20;;;;;;5089297;28;20111;-72
2023/05/21 10:58:43;;;;;;;11.05;9.00;;;27.70;70.50;;;;;;5084327;28;20025;-72
2023/05/21 11:01:08;;;;;;;;;;;27.70;70.10;;;;;;5095660;28;20020;-72
2023/05/21 11:03:36;;;;;;;13.43;10.52;;;27.60;69.50;;;;;;5086907;28;19908;-72
2023/05/21 11:06:05;;;;;;;11.80;9.63;;;26.70;71.30;;;;;;5098567;28;20085;-72
2023/05/21 11:08:34;;;;;;;11.95;8.95;;;26.30;72.70;;;;;;5091307;28;20028;-72
2023/05/21 11:11:01;;;;;;;12.38;8.63;;;26.60;72.40;;;;;;5086278;28;20103;-72
2023/05/21 11:13:31;;;;;;;12.70;10.13;;;27.10;72.40;;;;;;5098124;28;20443;-72
2023/05/21 11:15:57;;;;;;;13.43;11.18;;;27.60;69.70;;;;;;5087685;28;20028;-72
2023/05/21 11:18:38;;;;;;;15.77;11.15;;;27.50;72.70;;;;;;5096944;28;20032;-72
2023/05/21 11:21:07;;;;;;;12.05;9.50;;;27.80;73.20;;;;;;5093598;28;20016;-72
2023/05/21 11:23:51;;;;;;;10.93;8.68;;;27.60;69.90;;;;;;5095135;28;20032;-72
2023/05/21 11:26:45;;;;;;;11.93;9.07;;;27.70;71.80;;;;;;5090434;28;20060;-72
2023/05/21 11:29:15;;;;;;;9.32;7.35;;;27.50;67.50;;;;;;5083912;28;20161;-72
2023/05/21 11:31:57;;;;;;;9.32;7.25;;;26.80;68.20;;;;;;5091526;28;20316;-72
2023/05/21 11:34:27;;;;;;;11.15;7.38;;;26.90;68.00;;;;;;5086670;28;20032;-72
2023/05/21 11:39:54;;;;;;;8.93;6.85;;;27.20;69.40;;;;;;5074989;28;20043;-72
2023/05/21 11:42:31;;;;;;;11.55;8.10;;;27.70;66.50;;;;;;5097990;28;20024;-72
2023/05/21 11:44:58;;;;;;;12.43;8.75;;;27.50;68.00;;;;;;5098665;28;20578;-74
2023/05/21 11:47:25;;;;;;;11.73;10.40;;;27.50;71.30;;;;;;5098489;28;20028;-73
2023/05/21 11:49:50;;;;;;;12.77;9.85;;;27.40;71.70;;;;;;5098631;28;20309;-73
2023/05/21 11:52:18;;;;;;;15.73;10.45;;;27.50;71.50;;;;;;5091082;28;20036;-72
2023/05/21 11:54:47;;;;;;;11.55;9.77;;;27.20;72.30;;;;;;5076978;28;20016;-72
2023/05/21 11:57:15;;;;;;;13.98;11.38;;;27.40;72.80;;;;;;5078068;28;20348;-72
2023/05/21 11:59:41;;;;;;;11.40;9.80;;;27.20;72.30;;;;;;5077949;28;20025;-72
2023/05/21 12:02:07;;;;;;;13.30;10.88;;;26.50;74.20;;;;;;5078211;28;20081;-72
2023/05/21 12:04:37;;;;;;;12.50;10.70;;;26.30;76.80;;;;;;5077934;28;20021;-73
2023/05/21 12:07:06;;;;;;;13.98;10.88;;;26.50;74.70;;;;;;5084418;28;20020;-72
2023/05/21 12:09:47;;;;;;;15.63;12.05;;;26.60;75.00;;;;;;5096989;28;20048;-72
2023/05/21 12:12:17;;;;;;;13.07;10.02;;;26.80;75.90;;;;;;5097865;28;20031;-71
2023/05/21 12:14:48;;;;;;;13.73;10.38;;;27.30;74.00;;;;;;5098034;28;20032;-71
2023/05/21 12:17:21;;;;;;;13.32;9.57;;;27.40;72.70;;;;;;5098030;28;20111;-71
2023/05/21 12:19:48;;;;;;;12.25;10.15;;;27.90;72.40;;;;;;5097833;28;20412;-73
2023/05/21 12:22:15;;;;;;;11.65;9.52;;;28.60;69.50;;;;;;5084298;28;20067;-71
2023/05/21 12:24:42;;;;;;;11.57;9.68;;;28.70;72.00;;;;;;5076505;28;20112;-72
2023/05/21 12:27:09;;;;;;;14.38;10.68;;;29.40;69.30;;;;;;5077375;28;20074;-72
2023/05/21 12:29:40;;;;;;;12.82;11.02;;;29.50;67.60;;;;;;5077584;28;20028;-71
2023/05/21 12:32:08;;;;;;;12.57;10.10;;;28.80;68.10;;;;;;5077429;28;20052;-72
2023/05/21 12:34:44;;;;;;;11.60;8.88;;;28.60;70.80;;;;;;5077259;28;20028;-71